EZY1174 EKVG-BIKF
Flight info
| Callsign | EZY1174 |
|---|---|
| Flight time | 1h 10m |
| Altitude | 36000 |
| Route | MY DCT ING DCT NASBU NASBU5N |
| Aircraft | A20N/M-SDE2E3FGHIRWXY/LB1 |
Departure
| Time | 2026-05-07 12:00 |
|---|---|
| Airport | Vágar Airport (EKVG) |
Arrival
| Time | 2026-05-07 13:10 |
|---|---|
| Airport | Keflavik International Airport (BIKF) |
| Time | Latitude | Longitude | Altitude | Speed | Heading |
|---|---|---|---|---|---|
| 2026-05-07 11:31 | 62.06712 | -7.28026 | 285 ft | 0 kts | 73° |
| 2026-05-07 11:51 | 62.06708 | -7.28052 | 289 ft | 4 kts | 66° |
| 2026-05-07 11:51 | 62.06695 | -7.28102 | 287 ft | 4 kts | 64° |
| 2026-05-07 11:52 | 62.06689 | -7.28129 | 293 ft | 2 kts | 158° |
| 2026-05-07 11:52 | 62.06694 | -7.28133 | 290 ft | 0 kts | 159° |
| 2026-05-07 11:54 | 62.06692 | -7.28132 | 285 ft | 1 kts | 159° |
| 2026-05-07 11:54 | 62.06689 | -7.28129 | 285 ft | 0 kts | 158° |
| 2026-05-07 11:56 | 62.06688 | -7.28128 | 288 ft | 1 kts | 158° |
| 2026-05-07 11:56 | 62.06644 | -7.28092 | 285 ft | 10 kts | 163° |
| 2026-05-07 11:56 | 62.06564 | -7.28094 | 288 ft | 13 kts | 194° |
| 2026-05-07 11:57 | 62.06500 | -7.28158 | 289 ft | 9 kts | 230° |
| 2026-05-07 11:57 | 62.06508 | -7.28322 | 287 ft | 16 kts | 297° |
| 2026-05-07 11:57 | 62.06569 | -7.28566 | 283 ft | 21 kts | 298° |
| 2026-05-07 11:57 | 62.06644 | -7.28864 | 281 ft | 24 kts | 296° |
| 2026-05-07 11:58 | 62.06702 | -7.29144 | 276 ft | 12 kts | 278° |
| 2026-05-07 11:58 | 62.06719 | -7.29227 | 275 ft | 3 kts | 342° |
| 2026-05-07 11:58 | 62.06733 | -7.29204 | 275 ft | 3 kts | 62° |
| 2026-05-07 11:58 | 62.06724 | -7.29168 | 275 ft | 5 kts | 136° |
| 2026-05-07 11:59 | 62.06705 | -7.29109 | 279 ft | 0 kts | 119° |
| 2026-05-07 11:59 | 62.06658 | -7.28923 | 279 ft | 47 kts | 117° |
| 2026-05-07 11:59 | 62.06396 | -7.27863 | 293 ft | 110 kts | 118° |
| 2026-05-07 11:59 | 62.05970 | -7.26219 | 706 ft | 126 kts | 114° |
| 2026-05-07 12:00 | 62.05548 | -7.24636 | 1612 ft | 122 kts | 109° |
| 2026-05-07 12:00 | 62.05089 | -7.23111 | 2446 ft | 127 kts | 122° |
| 2026-05-07 12:00 | 62.04323 | -7.22029 | 3103 ft | 140 kts | 147° |
| 2026-05-07 12:00 | 62.03273 | -7.21728 | 3647 ft | 168 kts | 173° |
| 2026-05-07 12:01 | 62.02104 | -7.22509 | 4262 ft | 189 kts | 197° |
| 2026-05-07 12:01 | 62.01007 | -7.24384 | 4694 ft | 220 kts | 219° |
| 2026-05-07 12:01 | 62.00041 | -7.27154 | 5110 ft | 248 kts | 232° |
| 2026-05-07 12:01 | 61.99294 | -7.30679 | 5560 ft | 275 kts | 248° |
| 2026-05-07 12:02 | 61.98953 | -7.34811 | 6277 ft | 291 kts | 265° |
| 2026-05-07 12:02 | 61.99162 | -7.39100 | 7191 ft | 295 kts | 282° |
| 2026-05-07 12:02 | 61.99939 | -7.43156 | 8057 ft | 300 kts | 301° |
| 2026-05-07 12:02 | 62.01267 | -7.46616 | 8865 ft | 305 kts | 320° |
| 2026-05-07 12:03 | 62.03027 | -7.49141 | 9705 ft | 308 kts | 330° |
| 2026-05-07 12:03 | 62.04833 | -7.51810 | 10190 ft | 325 kts | 328° |
| 2026-05-07 12:03 | 62.06125 | -7.53560 | 10390 ft | 339 kts | 330° |
| 2026-05-07 12:03 | 62.08205 | -7.56228 | 10714 ft | 359 kts | 330° |
| 2026-05-07 12:04 | 62.10378 | -7.59065 | 11171 ft | 372 kts | 324° |
| 2026-05-07 12:04 | 62.12205 | -7.62950 | 11888 ft | 372 kts | 303° |
| 2026-05-07 12:04 | 62.13755 | -7.69448 | 12926 ft | 371 kts | 289° |
| 2026-05-07 12:04 | 62.14395 | -7.72912 | 13515 ft | 371 kts | 288° |
| 2026-05-07 12:05 | 62.15363 | -7.78055 | 14231 ft | 374 kts | 289° |
| 2026-05-07 12:05 | 62.16391 | -7.83114 | 14969 ft | 377 kts | 291° |
| 2026-05-07 12:05 | 62.17504 | -7.88236 | 15663 ft | 380 kts | 291° |
| 2026-05-07 12:05 | 62.18657 | -7.93365 | 16323 ft | 384 kts | 292° |
| 2026-05-07 12:06 | 62.19835 | -7.98519 | 17011 ft | 387 kts | 292° |
| 2026-05-07 12:06 | 62.21024 | -8.03703 | 17664 ft | 390 kts | 292° |
| 2026-05-07 12:06 | 62.22220 | -8.08939 | 18292 ft | 393 kts | 292° |
| 2026-05-07 12:06 | 62.23421 | -8.14221 | 18868 ft | 395 kts | 291° |
| 2026-05-07 12:07 | 62.24626 | -8.19548 | 19456 ft | 398 kts | 291° |
| 2026-05-07 12:07 | 62.25840 | -8.24929 | 19976 ft | 402 kts | 291° |
| 2026-05-07 12:07 | 62.27059 | -8.30346 | 20559 ft | 404 kts | 291° |
| 2026-05-07 12:07 | 62.28282 | -8.35803 | 21098 ft | 408 kts | 291° |
| 2026-05-07 12:08 | 62.29513 | -8.41321 | 21637 ft | 411 kts | 291° |
| 2026-05-07 12:08 | 62.30752 | -8.46890 | 22153 ft | 415 kts | 291° |
| 2026-05-07 12:08 | 62.32001 | -8.52515 | 22639 ft | 418 kts | 291° |
| 2026-05-07 12:08 | 62.33257 | -8.58180 | 23211 ft | 421 kts | 291° |
| 2026-05-07 12:09 | 62.34518 | -8.63892 | 23641 ft | 424 kts | 291° |
| 2026-05-07 12:09 | 62.35788 | -8.69646 | 24182 ft | 424 kts | 290° |
| 2026-05-07 12:09 | 62.37052 | -8.75384 | 24753 ft | 424 kts | 290° |
| 2026-05-07 12:09 | 62.38298 | -8.81054 | 25235 ft | 424 kts | 290° |
| 2026-05-07 12:10 | 62.39560 | -8.86811 | 25712 ft | 425 kts | 289° |
| 2026-05-07 12:10 | 62.40822 | -8.92590 | 26152 ft | 427 kts | 289° |
| 2026-05-07 12:10 | 62.42086 | -8.98402 | 26605 ft | 428 kts | 289° |
| 2026-05-07 12:10 | 62.43350 | -9.04221 | 27030 ft | 429 kts | 289° |
| 2026-05-07 12:11 | 62.44618 | -9.10080 | 27449 ft | 430 kts | 289° |
| 2026-05-07 12:11 | 62.45886 | -9.15951 | 27831 ft | 432 kts | 289° |
| 2026-05-07 12:11 | 62.47157 | -9.21856 | 28227 ft | 434 kts | 289° |
| 2026-05-07 12:11 | 62.48429 | -9.27782 | 28593 ft | 435 kts | 289° |
| 2026-05-07 12:12 | 62.49703 | -9.33731 | 28950 ft | 437 kts | 288° |
| 2026-05-07 12:12 | 62.50981 | -9.39716 | 29279 ft | 439 kts | 288° |
| 2026-05-07 12:12 | 62.52261 | -9.45730 | 29614 ft | 440 kts | 288° |
| 2026-05-07 12:12 | 62.53527 | -9.51698 | 29945 ft | 442 kts | 288° |
| 2026-05-07 12:13 | 62.54813 | -9.57774 | 30210 ft | 444 kts | 288° |
| 2026-05-07 12:13 | 62.56100 | -9.63878 | 30474 ft | 446 kts | 289° |
| 2026-05-07 12:13 | 62.57393 | -9.70026 | 30733 ft | 448 kts | 289° |
| 2026-05-07 12:13 | 62.58685 | -9.76187 | 31012 ft | 450 kts | 289° |
| 2026-05-07 12:14 | 62.59976 | -9.82363 | 31360 ft | 449 kts | 289° |
| 2026-05-07 12:14 | 62.61264 | -9.88547 | 31704 ft | 449 kts | 289° |
| 2026-05-07 12:14 | 62.62545 | -9.94712 | 32051 ft | 448 kts | 289° |
| 2026-05-07 12:14 | 62.63823 | -10.00879 | 32397 ft | 447 kts | 289° |
| 2026-05-07 12:15 | 62.65093 | -10.07030 | 32741 ft | 446 kts | 289° |
| 2026-05-07 12:15 | 62.66360 | -10.13185 | 33077 ft | 445 kts | 290° |
| 2026-05-07 12:15 | 62.67623 | -10.19337 | 33392 ft | 444 kts | 290° |
| 2026-05-07 12:15 | 62.68880 | -10.25486 | 33730 ft | 444 kts | 290° |
| 2026-05-07 12:16 | 62.70129 | -10.31612 | 34021 ft | 443 kts | 290° |
| 2026-05-07 12:16 | 62.71381 | -10.37769 | 34252 ft | 443 kts | 290° |
| 2026-05-07 12:16 | 62.72626 | -10.43903 | 34491 ft | 442 kts | 290° |
| 2026-05-07 12:16 | 62.73856 | -10.49968 | 34667 ft | 443 kts | 290° |
| 2026-05-07 12:17 | 62.75098 | -10.56126 | 34832 ft | 444 kts | 290° |
| 2026-05-07 12:17 | 62.76341 | -10.62308 | 35028 ft | 444 kts | 290° |
| 2026-05-07 12:17 | 62.77580 | -10.68491 | 35202 ft | 445 kts | 290° |
| 2026-05-07 12:17 | 62.78819 | -10.74682 | 35400 ft | 445 kts | 290° |
| 2026-05-07 12:18 | 62.80056 | -10.80891 | 35584 ft | 445 kts | 290° |
| 2026-05-07 12:18 | 62.81291 | -10.87102 | 35766 ft | 445 kts | 290° |
| 2026-05-07 12:18 | 62.82522 | -10.93308 | 35908 ft | 446 kts | 290° |
| 2026-05-07 12:19 | 62.84972 | -11.05728 | 35934 ft | 446 kts | 291° |
| 2026-05-07 12:19 | 62.87426 | -11.18259 | 35934 ft | 448 kts | 290° |
| 2026-05-07 12:20 | 62.89868 | -11.30797 | 35942 ft | 446 kts | 291° |
| 2026-05-07 12:20 | 62.92295 | -11.43327 | 35949 ft | 447 kts | 290° |
| 2026-05-07 12:21 | 62.94716 | -11.55909 | 35955 ft | 446 kts | 290° |
| 2026-05-07 12:21 | 62.97106 | -11.68413 | 35957 ft | 447 kts | 290° |
| 2026-05-07 12:22 | 62.99509 | -11.81057 | 35967 ft | 448 kts | 290° |
| 2026-05-07 12:22 | 63.01899 | -11.93716 | 35970 ft | 448 kts | 290° |
| 2026-05-07 12:23 | 63.04268 | -12.06344 | 35978 ft | 448 kts | 290° |
| 2026-05-07 12:23 | 63.06639 | -12.19058 | 35983 ft | 447 kts | 290° |
| 2026-05-07 12:24 | 63.08992 | -12.31766 | 35988 ft | 447 kts | 290° |
| 2026-05-07 12:24 | 63.11337 | -12.44512 | 35993 ft | 447 kts | 290° |
| 2026-05-07 12:25 | 63.13670 | -12.57270 | 35998 ft | 447 kts | 290° |
| 2026-05-07 12:25 | 63.15994 | -12.70057 | 36006 ft | 448 kts | 290° |
| 2026-05-07 12:26 | 63.18303 | -12.82849 | 36012 ft | 447 kts | 290° |
| 2026-05-07 12:26 | 63.20605 | -12.95702 | 36016 ft | 449 kts | 290° |
| 2026-05-07 12:27 | 63.22889 | -13.08526 | 36019 ft | 448 kts | 290° |
| 2026-05-07 12:27 | 63.25163 | -13.21376 | 36026 ft | 448 kts | 290° |
| 2026-05-07 12:28 | 63.27428 | -13.34259 | 36037 ft | 447 kts | 290° |
| 2026-05-07 12:28 | 63.29679 | -13.47156 | 36037 ft | 447 kts | 290° |
| 2026-05-07 12:29 | 63.31911 | -13.60033 | 36037 ft | 448 kts | 290° |
| 2026-05-07 12:29 | 63.34143 | -13.72994 | 36046 ft | 448 kts | 290° |
| 2026-05-07 12:30 | 63.36357 | -13.85943 | 36051 ft | 447 kts | 290° |
| 2026-05-07 12:30 | 63.38562 | -13.98922 | 36055 ft | 448 kts | 290° |
| 2026-05-07 12:31 | 63.40755 | -14.11927 | 36064 ft | 447 kts | 290° |
| 2026-05-07 12:31 | 63.42933 | -14.24929 | 36067 ft | 447 kts | 290° |
| 2026-05-07 12:32 | 63.45101 | -14.37960 | 36074 ft | 448 kts | 290° |
| 2026-05-07 12:32 | 63.47255 | -14.50999 | 36080 ft | 447 kts | 290° |
| 2026-05-07 12:33 | 63.50466 | -14.70610 | 36084 ft | 447 kts | 289° |
| 2026-05-07 12:33 | 63.52576 | -14.83612 | 36087 ft | 447 kts | 289° |
| 2026-05-07 12:34 | 63.54690 | -14.96730 | 36094 ft | 447 kts | 289° |
| 2026-05-07 12:34 | 63.56796 | -15.09893 | 36096 ft | 449 kts | 289° |
| 2026-05-07 12:35 | 63.58889 | -15.23069 | 36099 ft | 448 kts | 289° |
| 2026-05-07 12:35 | 63.60975 | -15.36295 | 36103 ft | 449 kts | 289° |
| 2026-05-07 12:36 | 63.63037 | -15.49467 | 36107 ft | 449 kts | 289° |
| 2026-05-07 12:36 | 63.65101 | -15.62747 | 36110 ft | 448 kts | 289° |
| 2026-05-07 12:37 | 63.67149 | -15.76023 | 36112 ft | 450 kts | 289° |
| 2026-05-07 12:37 | 63.69185 | -15.89322 | 36115 ft | 450 kts | 289° |
| 2026-05-07 12:38 | 63.71218 | -16.02700 | 36118 ft | 450 kts | 289° |
| 2026-05-07 12:38 | 63.73227 | -16.16016 | 36125 ft | 450 kts | 289° |
| 2026-05-07 12:39 | 63.75236 | -16.29420 | 36126 ft | 451 kts | 289° |
| 2026-05-07 12:39 | 63.77241 | -16.42846 | 36129 ft | 450 kts | 289° |
| 2026-05-07 12:40 | 63.79158 | -16.56340 | 36134 ft | 451 kts | 286° |
| 2026-05-07 12:40 | 63.80517 | -16.70112 | 36134 ft | 451 kts | 281° |
| 2026-05-07 12:41 | 63.81291 | -16.84187 | 36136 ft | 452 kts | 278° |
| 2026-05-07 12:41 | 63.82030 | -16.98339 | 36137 ft | 452 kts | 278° |
| 2026-05-07 12:42 | 63.82742 | -17.12480 | 36143 ft | 452 kts | 278° |
| 2026-05-07 12:42 | 63.83423 | -17.26643 | 36143 ft | 452 kts | 278° |
| 2026-05-07 12:43 | 63.84085 | -17.40804 | 36148 ft | 452 kts | 277° |
| 2026-05-07 12:43 | 63.84734 | -17.54974 | 36150 ft | 452 kts | 277° |
| 2026-05-07 12:44 | 63.85371 | -17.69189 | 36155 ft | 453 kts | 277° |
| 2026-05-07 12:44 | 63.85988 | -17.83282 | 36155 ft | 453 kts | 277° |
| 2026-05-07 12:45 | 63.86597 | -17.97499 | 36156 ft | 453 kts | 277° |
| 2026-05-07 12:45 | 63.87193 | -18.11749 | 36156 ft | 454 kts | 277° |
| 2026-05-07 12:46 | 63.87776 | -18.26020 | 36157 ft | 454 kts | 277° |
| 2026-05-07 12:46 | 63.88343 | -18.40282 | 36162 ft | 455 kts | 277° |
| 2026-05-07 12:47 | 63.88898 | -18.54585 | 36166 ft | 454 kts | 276° |
| 2026-05-07 12:47 | 63.89170 | -18.61718 | 35935 ft | 453 kts | 276° |
| 2026-05-07 12:47 | 63.89437 | -18.68851 | 35390 ft | 454 kts | 276° |
| 2026-05-07 12:48 | 63.89701 | -18.75949 | 34665 ft | 457 kts | 276° |
| 2026-05-07 12:48 | 63.89965 | -18.83183 | 33777 ft | 462 kts | 276° |
| 2026-05-07 12:48 | 63.90228 | -18.90455 | 32910 ft | 463 kts | 276° |
| 2026-05-07 12:48 | 63.90486 | -18.97739 | 32112 ft | 461 kts | 276° |
| 2026-05-07 12:49 | 63.90739 | -19.05000 | 31349 ft | 459 kts | 276° |
| 2026-05-07 12:49 | 63.90987 | -19.12204 | 30579 ft | 457 kts | 276° |
| 2026-05-07 12:49 | 63.91232 | -19.19384 | 29702 ft | 455 kts | 276° |
| 2026-05-07 12:49 | 63.91472 | -19.26528 | 28866 ft | 452 kts | 277° |
| 2026-05-07 12:50 | 63.91704 | -19.33589 | 28185 ft | 447 kts | 277° |
| 2026-05-07 12:50 | 63.91928 | -19.40499 | 27548 ft | 441 kts | 277° |
| 2026-05-07 12:50 | 63.92148 | -19.47397 | 27014 ft | 433 kts | 277° |
| 2026-05-07 12:50 | 63.92362 | -19.54184 | 26465 ft | 427 kts | 277° |
| 2026-05-07 12:51 | 63.92569 | -19.60862 | 25933 ft | 420 kts | 277° |
| 2026-05-07 12:51 | 63.92771 | -19.67455 | 25395 ft | 414 kts | 277° |
| 2026-05-07 12:51 | 63.92967 | -19.73957 | 24873 ft | 409 kts | 277° |
| 2026-05-07 12:51 | 63.93158 | -19.80364 | 24360 ft | 404 kts | 277° |
| 2026-05-07 12:52 | 63.93345 | -19.86711 | 23827 ft | 400 kts | 277° |
| 2026-05-07 12:52 | 63.93524 | -19.92901 | 23279 ft | 395 kts | 277° |
| 2026-05-07 12:52 | 63.93699 | -19.99098 | 22772 ft | 389 kts | 277° |
| 2026-05-07 12:52 | 63.93869 | -20.05168 | 22270 ft | 383 kts | 277° |
| 2026-05-07 12:53 | 63.94035 | -20.11177 | 21774 ft | 377 kts | 277° |
| 2026-05-07 12:53 | 63.94197 | -20.17095 | 21282 ft | 373 kts | 277° |
| 2026-05-07 12:53 | 63.94355 | -20.22944 | 20801 ft | 368 kts | 277° |
| 2026-05-07 12:53 | 63.94508 | -20.28718 | 20321 ft | 364 kts | 277° |
| 2026-05-07 12:54 | 63.94541 | -20.34301 | 19865 ft | 362 kts | 271° |
| 2026-05-07 12:54 | 63.94408 | -20.38232 | 19537 ft | 362 kts | 266° |
| 2026-05-07 12:54 | 63.94006 | -20.43872 | 19061 ft | 360 kts | 264° |
| 2026-05-07 12:54 | 63.93590 | -20.49462 | 18590 ft | 357 kts | 264° |
| 2026-05-07 12:55 | 63.93189 | -20.55026 | 18081 ft | 355 kts | 264° |
| 2026-05-07 12:55 | 63.92792 | -20.60525 | 17610 ft | 351 kts | 264° |
| 2026-05-07 12:55 | 63.92396 | -20.65974 | 17148 ft | 347 kts | 264° |
| 2026-05-07 12:55 | 63.92000 | -20.71361 | 16688 ft | 344 kts | 264° |
| 2026-05-07 12:56 | 63.91603 | -20.76701 | 16236 ft | 341 kts | 264° |
| 2026-05-07 12:56 | 63.91208 | -20.81996 | 15781 ft | 338 kts | 264° |
| 2026-05-07 12:56 | 63.90820 | -20.87162 | 15342 ft | 335 kts | 264° |
| 2026-05-07 12:56 | 63.90429 | -20.92361 | 14899 ft | 333 kts | 264° |
| 2026-05-07 12:57 | 63.90036 | -20.97527 | 14449 ft | 331 kts | 264° |
| 2026-05-07 12:57 | 63.89645 | -21.02654 | 14010 ft | 329 kts | 263° |
| 2026-05-07 12:57 | 63.89254 | -21.07758 | 13545 ft | 327 kts | 263° |
| 2026-05-07 12:57 | 63.88863 | -21.12825 | 13115 ft | 324 kts | 263° |
| 2026-05-07 12:58 | 63.88476 | -21.17834 | 12681 ft | 321 kts | 263° |
| 2026-05-07 12:58 | 63.88090 | -21.22804 | 12259 ft | 318 kts | 263° |
| 2026-05-07 12:58 | 63.87704 | -21.27729 | 11837 ft | 315 kts | 263° |
| 2026-05-07 12:58 | 63.87313 | -21.32750 | 11390 ft | 338 kts | 263° |
| 2026-05-07 12:59 | 63.86891 | -21.38176 | 10936 ft | 358 kts | 263° |
| 2026-05-07 12:59 | 63.86449 | -21.43748 | 10762 ft | 355 kts | 262° |
| 2026-05-07 12:59 | 63.86016 | -21.49115 | 10648 ft | 344 kts | 262° |
| 2026-05-07 12:59 | 63.85593 | -21.54336 | 10516 ft | 330 kts | 263° |
| 2026-05-07 13:00 | 63.85186 | -21.59360 | 10385 ft | 317 kts | 263° |
| 2026-05-07 13:00 | 63.84793 | -21.64191 | 10259 ft | 304 kts | 263° |
| 2026-05-07 13:00 | 63.84416 | -21.68815 | 10090 ft | 294 kts | 263° |
| 2026-05-07 13:00 | 63.84046 | -21.73352 | 9677 ft | 291 kts | 263° |
| 2026-05-07 13:01 | 63.83680 | -21.77859 | 9236 ft | 290 kts | 263° |
| 2026-05-07 13:01 | 63.83314 | -21.82349 | 8769 ft | 290 kts | 262° |
| 2026-05-07 13:01 | 63.82947 | -21.86821 | 8366 ft | 288 kts | 262° |
| 2026-05-07 13:01 | 63.82579 | -21.91273 | 7953 ft | 287 kts | 262° |
| 2026-05-07 13:02 | 63.82210 | -21.95715 | 7538 ft | 286 kts | 262° |
| 2026-05-07 13:02 | 63.81842 | -22.00122 | 7136 ft | 285 kts | 262° |
| 2026-05-07 13:02 | 63.81470 | -22.04548 | 6737 ft | 285 kts | 262° |
| 2026-05-07 13:02 | 63.81098 | -22.08930 | 6346 ft | 283 kts | 260° |
| 2026-05-07 13:03 | 63.80536 | -22.13145 | 5926 ft | 284 kts | 252° |
| 2026-05-07 13:03 | 63.79893 | -22.17351 | 5537 ft | 282 kts | 252° |
| 2026-05-07 13:03 | 63.79261 | -22.21527 | 5169 ft | 281 kts | 252° |
| 2026-05-07 13:03 | 63.78638 | -22.25649 | 4985 ft | 270 kts | 252° |
| 2026-05-07 13:04 | 63.78036 | -22.29615 | 4992 ft | 270 kts | 252° |
| 2026-05-07 13:04 | 63.77412 | -22.33739 | 4965 ft | 281 kts | 252° |
| 2026-05-07 13:04 | 63.77012 | -22.37987 | 4921 ft | 273 kts | 274° |
| 2026-05-07 13:04 | 63.77383 | -22.42038 | 4844 ft | 257 kts | 294° |
| 2026-05-07 13:05 | 63.78004 | -22.45752 | 4635 ft | 250 kts | 294° |
| 2026-05-07 13:05 | 63.78608 | -22.49414 | 4341 ft | 248 kts | 294° |
| 2026-05-07 13:05 | 63.79204 | -22.53076 | 4020 ft | 246 kts | 294° |
| 2026-05-07 13:05 | 63.79800 | -22.56705 | 3671 ft | 244 kts | 298° |
| 2026-05-07 13:06 | 63.80794 | -22.59553 | 3535 ft | 223 kts | 330° |
| 2026-05-07 13:06 | 63.82186 | -22.60658 | 3291 ft | 209 kts | 1° |
| 2026-05-07 13:06 | 63.83630 | -22.60620 | 3040 ft | 207 kts | 4° |
| 2026-05-07 13:06 | 63.85032 | -22.60561 | 2827 ft | 198 kts | 3° |
| 2026-05-07 13:07 | 63.86372 | -22.60555 | 2584 ft | 188 kts | 3° |
| 2026-05-07 13:07 | 63.87677 | -22.60548 | 2169 ft | 187 kts | 3° |
| 2026-05-07 13:07 | 63.88981 | -22.60549 | 1802 ft | 185 kts | 2° |
| 2026-05-07 13:07 | 63.90227 | -22.60551 | 1507 ft | 171 kts | 3° |
| 2026-05-07 13:08 | 63.91357 | -22.60549 | 1288 ft | 156 kts | 3° |
| 2026-05-07 13:08 | 63.92378 | -22.60551 | 1058 ft | 137 kts | 3° |
| 2026-05-07 13:08 | 63.93275 | -22.60548 | 840 ft | 121 kts | 3° |
| 2026-05-07 13:08 | 63.94072 | -22.60549 | 673 ft | 109 kts | 3° |
| 2026-05-07 13:09 | 63.94856 | -22.60540 | 522 ft | 123 kts | 3° |
| 2026-05-07 13:09 | 63.95697 | -22.60535 | 360 ft | 117 kts | 3° |
| 2026-05-07 13:09 | 63.96488 | -22.60561 | 195 ft | 112 kts | 3° |
| 2026-05-07 13:09 | 63.97210 | -22.60546 | 168 ft | 84 kts | 0° |
| 2026-05-07 13:10 | 63.97661 | -22.60548 | 173 ft | 56 kts | 359° |
| 2026-05-07 13:10 | 63.98013 | -22.60555 | 169 ft | 44 kts | 351° |
| 2026-05-07 13:10 | 63.98256 | -22.60794 | 164 ft | 32 kts | 330° |
| 2026-05-07 13:10 | 63.98415 | -22.60945 | 164 ft | 21 kts | 355° |
| 2026-05-07 13:11 | 63.98556 | -22.60947 | 163 ft | 20 kts | 359° |
| 2026-05-07 13:11 | 63.98698 | -22.60950 | 163 ft | 21 kts | 359° |
| 2026-05-07 13:11 | 63.98844 | -22.60952 | 162 ft | 21 kts | 0° |
| 2026-05-07 13:11 | 63.98984 | -22.60944 | 163 ft | 21 kts | 358° |
| 2026-05-07 13:12 | 63.99116 | -22.60945 | 156 ft | 13 kts | 359° |
| 2026-05-07 13:12 | 63.99169 | -22.61114 | 148 ft | 17 kts | 271° |
| 2026-05-07 13:12 | 63.99174 | -22.61441 | 141 ft | 23 kts | 271° |
| 2026-05-07 13:12 | 63.99175 | -22.61817 | 141 ft | 25 kts | 270° |
| 2026-05-07 13:13 | 63.99172 | -22.62221 | 141 ft | 26 kts | 269° |
| 2026-05-07 13:13 | 63.99171 | -22.62578 | 141 ft | 15 kts | 268° |
| 2026-05-07 13:13 | 63.99227 | -22.62695 | 141 ft | 12 kts | 343° |
| 2026-05-07 13:13 | 63.99310 | -22.62763 | 141 ft | 13 kts | 354° |
| 2026-05-07 13:14 | 63.99388 | -22.62731 | 141 ft | 9 kts | 21° |
| 2026-05-07 13:14 | 63.99451 | -22.62679 | 141 ft | 10 kts | 19° |
| 2026-05-07 13:14 | 63.99489 | -22.62601 | 141 ft | 7 kts | 83° |
| 2026-05-07 13:14 | 63.99490 | -22.62504 | 141 ft | 2 kts | 89° |
| 2026-05-07 13:15 | 63.99490 | -22.62469 | 141 ft | 0 kts | 89° |